Time;durP1;ratioP1;P1;durP2;ratioP2;P2;SDS_P1;SDS_P2;PMS_P1;PMS_P2;Temp;Humidity;BMP_temperature;BMP_pressure;BME280_temperature;BME280_humidity;BME280_pressure;Samples;Min_cycle;Max_cycle;Signal;HPM_P1;HPM_P2
2021/08/15 00:01:34;;;;;;;10.37;4.17;;;;;;;;;;5056956;28;20302;-77
2021/08/15 00:03:59;;;;;;;7.57;3.97;;;;;;;;;;5052076;28;20176;-77
2021/08/15 00:06:24;;;;;;;10.03;4.43;;;;;;;;;;5052679;28;20198;-77
2021/08/15 00:08:49;;;;;;;10.33;4.80;;;;;;;;;;5057593;28;20220;-77
2021/08/15 00:11:15;;;;;;;8.30;4.63;;;;;;;;;;5058484;28;20208;-77
2021/08/15 00:13:40;;;;;;;9.80;5.00;;;;;;;;;;5060826;28;20187;-78
2021/08/15 00:16:05;;;;;;;8.87;4.70;;;;;;;;;;5055808;28;20191;-76
2021/08/15 00:18:31;;;;;;;14.40;5.77;;;;;;;;;;5056072;28;20179;-77
2021/08/15 00:20:56;;;;;;;11.30;5.07;;;;;;;;;;5059127;28;20679;-77
2021/08/15 00:23:21;;;;;;;11.00;5.30;;;;;;;;;;5057613;28;20214;-77
2021/08/15 00:25:46;;;;;;;10.33;5.10;;;;;;;;;;5058302;28;20176;-77
2021/08/15 00:28:12;;;;;;;13.83;6.13;;;;;;;;;;5059240;28;20229;-78
2021/08/15 00:30:37;;;;;;;13.90;5.70;;;;;;;;;;5052473;28;20183;-77
2021/08/15 00:33:02;;;;;;;12.77;6.00;;;;;;;;;;5059522;28;20183;-77
2021/08/15 00:35:27;;;;;;;9.13;5.60;;;;;;;;;;5057234;28;20687;-77
2021/08/15 00:37:53;;;;;;;12.83;5.50;;;;;;;;;;5057257;28;20283;-77
2021/08/15 00:40:18;;;;;;;10.20;6.20;;;;;;;;;;5056049;28;20171;-76
2021/08/15 00:42:43;;;;;;;16.10;7.73;;;;;;;;;;5053135;28;20214;-77
2021/08/15 00:45:10;;;;;;;15.00;7.27;;;;;;;;;;5054806;28;20171;-77
2021/08/15 00:47:35;;;;;;;10.00;6.03;;;;;;;;;;5059717;28;20191;-78
2021/08/15 00:50:02;;;;;;;12.80;6.93;;;;;;;;;;5054710;28;20457;-77
2021/08/15 00:52:27;;;;;;;16.00;6.50;;;;;;;;;;5059637;28;20187;-77
2021/08/15 00:54:53;;;;;;;14.73;6.60;;;;;;;;;;5053404;28;20956;-77
2021/08/15 00:57:18;;;;;;;10.27;5.83;;;;;;;;;;5060406;28;20211;-78
2021/08/15 00:59:43;;;;;;;13.80;6.60;;;;;;;;;;5054803;28;21258;-77
2021/08/15 01:02:09;;;;;;;14.57;6.53;;;;;;;;;;5057256;28;20218;-78
2021/08/15 01:04:35;;;;;;;18.90;7.53;;;;;;;;;;5052840;28;20296;-77
2021/08/15 01:07:03;;;;;;;8.10;6.00;;;;;;;;;;5051027;28;20285;-77
2021/08/15 01:09:28;;;;;;;9.83;6.40;;;;;;;;;;5054324;28;20942;-77
2021/08/15 01:11:53;;;;;;;12.90;7.70;;;;;;;;;;5057716;28;20439;-78
2021/08/15 01:14:19;;;;;;;12.20;7.10;;;;;;;;;;5060599;28;20270;-78
2021/08/15 01:16:44;;;;;;;11.23;7.27;;;;;;;;;;5055998;28;20215;-77
2021/08/15 01:19:10;;;;;;;13.47;7.17;;;;;;;;;;5057949;28;20690;-78
2021/08/15 01:21:35;;;;;;;12.83;6.67;;;;;;;;;;5059647;28;20203;-78
2021/08/15 01:24:01;;;;;;;12.23;7.00;;;;;;;;;;5059166;28;20633;-78
2021/08/15 01:26:26;;;;;;;10.50;6.47;;;;;;;;;;5059454;28;20198;-78
2021/08/15 01:28:52;;;;;;;14.07;6.43;;;;;;;;;;5058679;28;20184;-77
2021/08/15 01:31:18;;;;;;;8.00;5.83;;;;;;;;;;5057402;28;20238;-78
2021/08/15 01:33:43;;;;;;;12.93;6.10;;;;;;;;;;5056752;28;20243;-78
2021/08/15 01:36:11;;;;;;;9.33;6.10;;;;;;;;;;5055396;28;20183;-78
2021/08/15 01:38:38;;;;;;;10.23;6.30;;;;;;;;;;5059818;28;20636;-78
2021/08/15 01:41:04;;;;;;;10.30;6.50;;;;;;;;;;5056842;28;20465;-76
2021/08/15 01:43:30;;;;;;;10.20;6.23;;;;;;;;;;5053424;28;20487;-76
2021/08/15 01:45:56;;;;;;;9.47;6.40;;;;;;;;;;5055305;28;20899;-76
2021/08/15 01:48:21;;;;;;;9.13;6.00;;;;;;;;;;5056522;28;20429;-77
2021/08/15 01:50:47;;;;;;;8.83;5.73;;;;;;;;;;5056232;28;20196;-76
2021/08/15 01:53:16;;;;;;;8.40;6.77;;;;;;;;;;5056023;28;20194;-76
2021/08/15 01:55:42;;;;;;;11.00;6.27;;;;;;;;;;5058315;28;20441;-76
2021/08/15 01:58:08;;;;;;;11.13;6.80;;;;;;;;;;5056270;28;20453;-76
2021/08/15 02:00:34;;;;;;;12.40;6.57;;;;;;;;;;5052601;28;20271;-76
2021/08/15 02:03:02;;;;;;;11.17;7.20;;;;;;;;;;5054132;28;20180;-76
2021/08/15 02:05:27;;;;;;;9.37;6.27;;;;;;;;;;5056020;28;20447;-77
2021/08/15 02:07:55;;;;;;;8.13;6.50;;;;;;;;;;5053240;28;20966;-76
2021/08/15 02:10:24;;;;;;;12.20;7.53;;;;;;;;;;5055256;28;20179;-76
2021/08/15 02:12:50;;;;;;;13.40;6.87;;;;;;;;;;5055200;28;20445;-76
2021/08/15 02:15:15;;;;;;;9.93;6.40;;;;;;;;;;5057307;28;20438;-75
2021/08/15 02:17:40;;;;;;;10.87;6.00;;;;;;;;;;5053654;28;20208;-76
2021/08/15 02:20:06;;;;;;;8.90;6.87;;;;;;;;;;5054443;28;20285;-76
2021/08/15 02:22:32;;;;;;;10.57;7.30;;;;;;;;;;5054702;28;20290;-76
2021/08/15 02:24:57;;;;;;;11.83;7.80;;;;;;;;;;5052593;28;20560;-76
2021/08/15 02:27:22;;;;;;;11.53;7.70;;;;;;;;;;5057033;28;20196;-76
2021/08/15 02:29:48;;;;;;;11.93;7.50;;;;;;;;;;5051799;28;20183;-76
2021/08/15 02:32:13;;;;;;;11.53;8.30;;;;;;;;;;5056079;28;20195;-76
2021/08/15 02:34:38;;;;;;;12.10;8.10;;;;;;;;;;5051086;28;20194;-76
2021/08/15 02:37:03;;;;;;;14.33;7.90;;;;;;;;;;5053772;28;20207;-76
2021/08/15 02:39:29;;;;;;;12.37;7.23;;;;;;;;;;5052516;28;20183;-76
2021/08/15 02:41:54;;;;;;;14.10;8.60;;;;;;;;;;5053712;28;20195;-76
2021/08/15 02:44:19;;;;;;;15.40;9.07;;;;;;;;;;5053859;28;20184;-77
2021/08/15 02:46:44;;;;;;;12.17;7.70;;;;;;;;;;5052808;28;20210;-75
2021/08/15 02:49:10;;;;;;;11.73;8.47;;;;;;;;;;5054705;28;25115;-76
2021/08/15 02:51:35;;;;;;;15.83;8.73;;;;;;;;;;5053688;28;20183;-76
2021/08/15 02:54:00;;;;;;;12.10;7.67;;;;;;;;;;5054070;28;20176;-76
2021/08/15 02:56:26;;;;;;;14.17;7.80;;;;;;;;;;5052697;28;20204;-76
2021/08/15 02:58:51;;;;;;;12.53;8.33;;;;;;;;;;5054103;28;20840;-75
2021/08/15 03:01:16;;;;;;;11.30;7.50;;;;;;;;;;5045781;28;21367;-77
2021/08/15 03:03:41;;;;;;;13.47;8.30;;;;;;;;;;5053511;28;20960;-76
2021/08/15 03:06:06;;;;;;;11.07;7.53;;;;;;;;;;5051082;28;20184;-76
2021/08/15 03:08:34;;;;;;;11.73;7.70;;;;;;;;;;5053634;28;20213;-76
2021/08/15 03:10:59;;;;;;;12.83;8.80;;;;;;;;;;5054710;28;20533;-77
2021/08/15 03:13:24;;;;;;;15.30;8.03;;;;;;;;;;5065151;28;20528;-77
2021/08/15 03:15:50;;;;;;;12.43;8.37;;;;;;;;;;5054997;28;20529;-77
2021/08/15 03:18:18;;;;;;;13.40;8.90;;;;;;;;;;5054864;28;20211;-76
2021/08/15 03:20:43;;;;;;;15.03;9.63;;;;;;;;;;5055285;28;20686;-76
2021/08/15 03:23:08;;;;;;;13.27;8.53;;;;;;;;;;5053248;28;20437;-76
2021/08/15 03:25:36;;;;;;;12.80;8.77;;;;;;;;;;5058871;28;20719;-77
2021/08/15 03:28:02;;;;;;;12.13;9.43;;;;;;;;;;5059033;28;20244;-76
2021/08/15 03:30:27;;;;;;;11.37;9.37;;;;;;;;;;5058083;28;20434;-76
2021/08/15 03:32:52;;;;;;;17.33;9.97;;;;;;;;;;5055010;28;20268;-77
2021/08/15 03:35:18;;;;;;;13.40;10.33;;;;;;;;;;5056796;28;20226;-76
2021/08/15 03:37:43;;;;;;;12.77;9.80;;;;;;;;;;5057200;28;20207;-76
2021/08/15 03:40:08;;;;;;;13.20;9.33;;;;;;;;;;5055699;28;20602;-76
2021/08/15 03:42:35;;;;;;;12.27;8.57;;;;;;;;;;5055430;28;20226;-76
2021/08/15 03:45:00;;;;;;;16.47;10.83;;;;;;;;;;5050963;28;20577;-77
2021/08/15 03:47:31;;;;;;;11.30;9.90;;;;;;;;;;5051991;28;20523;-76
2021/08/15 03:49:56;;;;;;;15.03;9.20;;;;;;;;;;5059569;28;20656;-76
2021/08/15 03:52:21;;;;;;;14.37;9.73;;;;;;;;;;5057119;28;20894;-77
2021/08/15 03:54:49;;;;;;;17.13;9.57;;;;;;;;;;5057142;28;20264;-77
2021/08/15 03:57:14;;;;;;;14.20;10.23;;;;;;;;;;5054738;28;20206;-77
2021/08/15 03:59:39;;;;;;;14.47;9.43;;;;;;;;;;5056777;28;20456;-77
2021/08/15 04:02:05;;;;;;;11.53;8.73;;;;;;;;;;5055250;28;20235;-77
2021/08/15 04:04:30;;;;;;;13.93;9.80;;;;;;;;;;5055418;28;20209;-77
2021/08/15 04:06:55;;;;;;;15.37;10.30;;;;;;;;;;5049681;28;20322;-76
2021/08/15 04:09:20;;;;;;;17.03;10.80;;;;;;;;;;5055323;28;20254;-77
2021/08/15 04:11:46;;;;;;;13.50;10.67;;;;;;;;;;5054954;28;20307;-75
2021/08/15 04:14:11;;;;;;;13.40;10.23;;;;;;;;;;5054908;28;20219;-76
2021/08/15 04:16:36;;;;;;;13.50;10.40;;;;;;;;;;5053885;28;20580;-76
2021/08/15 04:19:02;;;;;;;14.50;10.70;;;;;;;;;;5051471;28;20210;-76
2021/08/15 04:21:27;;;;;;;15.83;10.70;;;;;;;;;;5054347;28;20210;-77
2021/08/15 04:23:52;;;;;;;12.07;10.50;;;;;;;;;;5053670;28;20249;-77
2021/08/15 04:26:18;;;;;;;12.77;10.13;;;;;;;;;;5055137;28;20187;-76
2021/08/15 04:28:43;;;;;;;13.20;8.60;;;;;;;;;;5062234;28;20681;-77
2021/08/15 04:31:08;;;;;;;10.43;8.03;;;;;;;;;;5052354;28;20183;-77
2021/08/15 04:33:34;;;;;;;14.47;9.60;;;;;;;;;;5050698;28;20203;-77
2021/08/15 04:35:59;;;;;;;13.60;9.57;;;;;;;;;;5054900;28;20186;-77
2021/08/15 04:38:25;;;;;;;13.17;8.60;;;;;;;;;;5057458;28;20172;-78
2021/08/15 04:40:50;;;;;;;11.27;8.53;;;;;;;;;;5056365;28;20266;-78
2021/08/15 04:43:16;;;;;;;9.70;8.10;;;;;;;;;;5052825;28;20639;-78
2021/08/15 04:45:42;;;;;;;17.23;9.70;;;;;;;;;;5058301;28;20175;-78
2021/08/15 04:48:07;;;;;;;15.00;8.33;;;;;;;;;;5058112;28;20252;-78
2021/08/15 04:50:32;;;;;;;11.70;8.20;;;;;;;;;;5055848;28;20190;-78
2021/08/15 04:52:58;;;;;;;12.20;8.03;;;;;;;;;;5057465;28;20207;-78
2021/08/15 04:55:23;;;;;;;9.97;7.90;;;;;;;;;;5055541;28;20183;-77
2021/08/15 04:57:48;;;;;;;11.90;8.53;;;;;;;;;;5060099;28;20188;-78
2021/08/15 05:00:13;;;;;;;13.20;8.00;;;;;;;;;;5055418;28;20543;-76
2021/08/15 05:02:39;;;;;;;12.43;7.47;;;;;;;;;;5057257;28;20608;-76
2021/08/15 05:05:04;;;;;;;14.57;8.70;;;;;;;;;;5053139;28;26763;-76
2021/08/15 05:07:29;;;;;;;8.67;6.40;;;;;;;;;;5054294;28;20299;-76
2021/08/15 05:09:54;;;;;;;9.03;5.90;;;;;;;;;;5055946;28;20175;-76
2021/08/15 05:12:20;;;;;;;8.23;5.30;;;;;;;;;;5054902;28;20184;-76
2021/08/15 05:14:45;;;;;;;9.03;5.03;;;;;;;;;;5053100;28;20208;-76
2021/08/15 05:17:10;;;;;;;4.23;3.53;;;;;;;;;;5053321;28;20207;-76
2021/08/15 05:19:35;;;;;;;8.97;4.50;;;;;;;;;;5053235;28;20329;-76
2021/08/15 05:22:01;;;;;;;5.00;4.07;;;;;;;;;;5054984;28;20231;-76
2021/08/15 05:24:26;;;;;;;7.43;4.03;;;;;;;;;;5054730;28;20179;-76
2021/08/15 05:26:51;;;;;;;10.07;3.33;;;;;;;;;;5052804;28;20199;-76
2021/08/15 05:29:16;;;;;;;7.20;3.20;;;;;;;;;;5050650;28;20175;-75
2021/08/15 05:31:42;;;;;;;6.10;3.77;;;;;;;;;;5053666;28;20180;-76
2021/08/15 05:34:07;;;;;;;6.80;3.37;;;;;;;;;;5053088;28;20195;-76
2021/08/15 05:36:32;;;;;;;4.13;2.90;;;;;;;;;;5054835;28;20245;-75
2021/08/15 05:38:57;;;;;;;4.97;2.70;;;;;;;;;;5053895;28;20325;-76
2021/08/15 05:41:22;;;;;;;5.10;2.90;;;;;;;;;;5055784;28;20198;-76
2021/08/15 05:43:48;;;;;;;5.10;2.57;;;;;;;;;;5056251;28;20183;-75
2021/08/15 05:46:13;;;;;;;6.47;2.40;;;;;;;;;;5053224;28;20214;-76
2021/08/15 05:48:38;;;;;;;4.23;2.63;;;;;;;;;;5055228;28;20604;-76
2021/08/15 05:51:05;;;;;;;4.33;2.30;;;;;;;;;;5055162;28;20195;-76
2021/08/15 05:53:30;;;;;;;3.50;2.20;;;;;;;;;;5055242;28;20195;-76
2021/08/15 05:55:55;;;;;;;6.43;2.37;;;;;;;;;;5051355;28;20926;-75
2021/08/15 05:58:21;;;;;;;5.07;2.73;;;;;;;;;;5051591;28;20652;-75
2021/08/15 06:00:49;;;;;;;4.87;2.60;;;;;;;;;;5051157;28;20698;-76
2021/08/15 06:03:14;;;;;;;4.73;2.20;;;;;;;;;;5054527;28;20191;-76
2021/08/15 06:05:39;;;;;;;3.50;2.17;;;;;;;;;;5049782;28;20434;-76
2021/08/15 06:08:05;;;;;;;4.83;2.47;;;;;;;;;;5053397;28;20202;-76
2021/08/15 06:10:30;;;;;;;3.63;2.40;;;;;;;;;;5055021;28;20186;-76
2021/08/15 06:12:55;;;;;;;6.10;2.87;;;;;;;;;;5053303;28;20180;-76
2021/08/15 06:15:21;;;;;;;5.13;2.60;;;;;;;;;;5052902;28;20241;-76
2021/08/15 06:17:46;;;;;;;4.00;2.57;;;;;;;;;;5048225;28;20203;-76
2021/08/15 06:20:12;;;;;;;5.03;2.63;;;;;;;;;;5047276;28;20687;-77
2021/08/15 06:22:41;;;;;;;7.60;3.33;;;;;;;;;;5053094;28;20711;-76
2021/08/15 06:25:07;;;;;;;4.70;2.80;;;;;;;;;;5051028;28;20491;-76
2021/08/15 06:27:33;;;;;;;3.17;2.47;;;;;;;;;;5049628;28;20458;-76
2021/08/15 06:29:58;;;;;;;5.37;2.60;;;;;;;;;;5050396;28;20669;-76
2021/08/15 06:32:23;;;;;;;5.80;3.00;;;;;;;;;;5053518;28;20245;-76
2021/08/15 06:34:48;;;;;;;5.20;3.10;;;;;;;;;;5051733;28;20184;-76
2021/08/15 06:37:13;;;;;;;4.90;2.40;;;;;;;;;;5052081;28;20225;-76
2021/08/15 06:39:39;;;;;;;7.57;3.20;;;;;;;;;;5051147;28;20191;-75
2021/08/15 06:42:04;;;;;;;4.70;2.70;;;;;;;;;;5052999;28;20198;-75
2021/08/15 06:44:30;;;;;;;5.60;2.37;;;;;;;;;;5055097;28;20167;-76
2021/08/15 06:46:55;;;;;;;5.30;2.30;;;;;;;;;;5051817;28;20276;-75
2021/08/15 06:49:20;;;;;;;8.83;2.70;;;;;;;;;;5051774;28;20176;-76
2021/08/15 06:51:47;;;;;;;3.80;2.73;;;;;;;;;;5055560;28;20635;-76
2021/08/15 06:54:12;;;;;;;5.53;2.67;;;;;;;;;;5055396;28;20269;-76
2021/08/15 06:56:38;;;;;;;4.60;2.33;;;;;;;;;;5055599;28;20518;-76
2021/08/15 06:59:03;;;;;;;5.07;2.97;;;;;;;;;;5056725;28;20678;-76
2021/08/15 07:01:29;;;;;;;6.00;2.40;;;;;;;;;;5060254;28;20536;-78
2021/08/15 07:03:54;;;;;;;5.23;2.57;;;;;;;;;;5061125;28;20172;-78
2021/08/15 07:06:19;;;;;;;6.90;2.70;;;;;;;;;;5058358;28;20195;-78
2021/08/15 07:08:45;;;;;;;6.60;2.83;;;;;;;;;;5056534;28;20548;-78
2021/08/15 07:11:10;;;;;;;6.40;2.50;;;;;;;;;;5055502;28;20175;-77
2021/08/15 07:13:35;;;;;;;4.50;2.27;;;;;;;;;;5058757;28;20179;-77
2021/08/15 07:16:02;;;;;;;3.80;2.33;;;;;;;;;;5056325;28;20187;-78
2021/08/15 07:18:27;;;;;;;7.73;2.77;;;;;;;;;;5066427;28;20185;-78
2021/08/15 07:20:54;;;;;;;5.40;2.70;;;;;;;;;;5065812;28;20520;-79
2021/08/15 07:23:19;;;;;;;4.30;2.60;;;;;;;;;;5057767;28;20674;-78
2021/08/15 07:25:44;;;;;;;6.30;3.07;;;;;;;;;;5056458;28;20449;-77
2021/08/15 07:28:10;;;;;;;8.50;3.20;;;;;;;;;;5057997;28;20925;-77
2021/08/15 07:30:35;;;;;;;5.87;2.83;;;;;;;;;;5059818;28;20179;-78
2021/08/15 07:33:01;;;;;;;6.93;3.20;;;;;;;;;;5058275;28;20175;-77
2021/08/15 07:35:28;;;;;;;7.67;2.60;;;;;;;;;;5063207;28;20249;-78
2021/08/15 07:37:53;;;;;;;8.00;3.07;;;;;;;;;;5058903;28;20450;-76
2021/08/15 07:40:19;;;;;;;3.87;2.90;;;;;;;;;;5057199;28;20992;-77
2021/08/15 07:42:46;;;;;;;7.30;3.27;;;;;;;;;;5066915;28;20209;-75
2021/08/15 07:45:12;;;;;;;6.20;3.00;;;;;;;;;;5058831;28;20171;-76
2021/08/15 07:47:37;;;;;;;5.93;3.73;;;;;;;;;;5055199;28;20469;-74
2021/08/15 07:50:03;;;;;;;7.67;3.30;;;;;;;;;;5055463;28;20186;-76
2021/08/15 07:52:28;;;;;;;11.50;3.70;;;;;;;;;;5055198;28;20183;-76
2021/08/15 07:54:53;;;;;;;3.70;3.10;;;;;;;;;;5059646;28;20194;-80
2021/08/15 07:57:20;;;;;;;6.30;3.70;;;;;;;;;;5062289;28;20785;-73
2021/08/15 07:59:45;;;;;;;5.93;3.40;;;;;;;;;;5052036;28;20225;-77
2021/08/15 08:02:10;;;;;;;6.00;3.37;;;;;;;;;;5045722;28;20462;-76
2021/08/15 08:04:38;;;;;;;7.13;4.33;;;;;;;;;;5052773;28;20321;-76
2021/08/15 08:07:04;;;;;;;5.03;3.53;;;;;;;;;;5049607;28;20724;-77
2021/08/15 08:09:29;;;;;;;4.53;3.50;;;;;;;;;;5055613;28;20427;-76
2021/08/15 08:11:55;;;;;;;8.60;5.93;;;;;;;;;;5051085;28;20462;-77
2021/08/15 08:14:21;;;;;;;7.77;4.53;;;;;;;;;;5051324;28;20187;-76
2021/08/15 08:16:46;;;;;;;7.27;6.10;;;;;;;;;;5052756;28;20468;-76
2021/08/15 08:19:11;;;;;;;12.37;8.57;;;;;;;;;;5053746;28;20175;-75
2021/08/15 08:21:36;;;;;;;11.40;7.80;;;;;;;;;;5052251;28;20195;-74
2021/08/15 08:24:04;;;;;;;14.27;10.97;;;;;;;;;;5059691;28;20191;-74
2021/08/15 08:26:30;;;;;;;17.57;11.03;;;;;;;;;;5052623;28;20226;-75
2021/08/15 08:28:55;;;;;;;15.03;10.47;;;;;;;;;;5050301;28;21104;-75
2021/08/15 08:31:20;;;;;;;13.60;11.63;;;;;;;;;;5051018;28;20191;-75
2021/08/15 08:33:45;;;;;;;12.60;9.30;;;;;;;;;;5052859;28;20648;-75
2021/08/15 08:36:11;;;;;;;16.37;10.40;;;;;;;;;;5051777;28;20427;-74
2021/08/15 08:38:37;;;;;;;14.07;8.87;;;;;;;;;;5055438;28;20302;-75
2021/08/15 08:41:03;;;;;;;9.60;7.70;;;;;;;;;;5053016;28;20210;-74
2021/08/15 08:43:29;;;;;;;10.13;8.10;;;;;;;;;;5054757;28;20433;-75
2021/08/15 08:45:54;;;;;;;15.13;7.13;;;;;;;;;;5056359;28;20606;-75
2021/08/15 08:48:20;;;;;;;10.57;6.57;;;;;;;;;;5053472;28;20175;-74
2021/08/15 08:50:48;;;;;;;8.27;6.77;;;;;;;;;;5057204;28;20426;-74
2021/08/15 08:53:13;;;;;;;7.63;5.63;;;;;;;;;;5057508;28;20171;-75
2021/08/15 08:55:38;;;;;;;13.50;6.00;;;;;;;;;;5054213;28;20425;-75
2021/08/15 08:58:04;;;;;;;10.77;6.10;;;;;;;;;;5054174;28;20214;-73
2021/08/15 09:00:29;;;;;;;9.30;5.97;;;;;;;;;;5051438;28;20203;-74
2021/08/15 09:03:00;;;;;;;10.20;5.83;;;;;;;;;;5054964;28;20339;-74
2021/08/15 09:05:31;;;;;;;8.77;6.17;;;;;;;;;;5058572;28;20171;-74
2021/08/15 09:07:56;;;;;;;12.20;6.13;;;;;;;;;;5050394;28;20449;-75
2021/08/15 09:10:28;;;;;;;9.20;5.40;;;;;;;;;;5056665;28;20429;-76
2021/08/15 09:12:59;;;;;;;10.07;4.60;;;;;;;;;;5056236;28;20184;-74
2021/08/15 09:15:26;;;;;;;7.20;4.30;;;;;;;;;;5056123;28;20418;-74
2021/08/15 09:17:51;;;;;;;13.07;6.43;;;;;;;;;;5055859;28;20460;-75
2021/08/15 09:20:24;;;;;;;6.20;4.13;;;;;;;;;;5053325;28;20835;-74
2021/08/15 09:22:49;;;;;;;9.03;5.23;;;;;;;;;;5056908;28;20207;-73
2021/08/15 09:25:19;;;;;;;9.90;4.87;;;;;;;;;;5056237;28;20433;-73
2021/08/15 09:27:55;;;;;;;10.23;5.60;;;;;;;;;;5058209;28;20199;-74
2021/08/15 09:30:24;;;;;;;9.43;5.07;;;;;;;;;;5058185;28;20960;-75
2021/08/15 09:32:49;;;;;;;10.77;5.77;;;;;;;;;;5056949;28;20436;-75
2021/08/15 09:35:40;;;;;;;8.67;5.47;;;;;;;;;;5056802;28;20421;-77
2021/08/15 09:38:07;;;;;;;9.20;6.13;;;;;;;;;;5056309;28;20208;-75
2021/08/15 09:40:34;;;;;;;9.63;6.37;;;;;;;;;;5056183;28;20559;-75
2021/08/15 09:43:00;;;;;;;9.50;5.43;;;;;;;;;;5059108;28;20457;-74
2021/08/15 09:45:33;;;;;;;10.63;6.97;;;;;;;;;;5055716;28;20430;-78
2021/08/15 09:48:14;;;;;;;9.27;5.80;;;;;;;;;;5054018;28;20226;-76
2021/08/15 09:50:39;;;;;;;6.90;5.03;;;;;;;;;;5054388;28;20452;-75
2021/08/15 09:53:05;;;;;;;10.70;6.50;;;;;;;;;;5049724;28;20502;-76
2021/08/15 09:55:45;;;;;;;9.37;5.40;;;;;;;;;;5057203;28;20274;-75
2021/08/15 09:58:17;;;;;;;6.70;4.40;;;;;;;;;;5052745;28;20257;-73
2021/08/15 10:00:42;;;;;;;6.87;4.60;;;;;;;;;;5060483;28;20432;-74
2021/08/15 10:03:08;;;;;;;7.83;5.00;;;;;;;;;;5058497;28;20453;-74
2021/08/15 10:05:33;;;;;;;7.60;5.10;;;;;;;;;;5059465;28;20179;-77
2021/08/15 10:08:00;;;;;;;9.93;5.93;;;;;;;;;;5059551;28;20194;-75
2021/08/15 10:10:25;;;;;;;9.53;5.77;;;;;;;;;;5050845;28;20669;-77
2021/08/15 10:12:53;;;;;;;10.30;6.23;;;;;;;;;;5062661;28;20414;-77
2021/08/15 10:15:19;;;;;;;7.83;5.03;;;;;;;;;;5058482;28;20184;-79
2021/08/15 10:17:45;;;;;;;7.53;5.57;;;;;;;;;;5057039;28;20452;-75
2021/08/15 10:20:13;;;;;;;11.10;6.70;;;;;;;;;;5054503;28;20591;-77
2021/08/15 10:22:39;;;;;;;8.07;5.87;;;;;;;;;;5066011;28;20460;-76
2021/08/15 10:25:05;;;;;;;9.13;5.90;;;;;;;;;;5058812;28;20939;-76
2021/08/15 10:27:37;;;;;;;9.50;4.83;;;;;;;;;;5057059;28;20704;-76
2021/08/15 10:30:02;;;;;;;14.70;7.07;;;;;;;;;;5061212;28;20421;-77
2021/08/15 10:32:27;;;;;;;9.17;6.03;;;;;;;;;;5059598;28;20952;-79
2021/08/15 10:34:55;;;;;;;9.77;6.07;;;;;;;;;;5058357;28;20183;-77
2021/08/15 10:37:23;;;;;;;7.97;6.07;;;;;;;;;;5052661;28;20198;-76
2021/08/15 10:39:49;;;;;;;8.90;5.10;;;;;;;;;;5057673;28;20520;-76
2021/08/15 10:42:33;;;;;;;9.27;5.80;;;;;;;;;;5052452;28;21044;-75
2021/08/15 10:45:02;;;;;;;8.00;5.23;;;;;;;;;;5055432;28;20184;-76
2021/08/15 10:47:27;;;;;;;8.70;5.77;;;;;;;;;;5058162;28;20445;-74
2021/08/15 10:49:54;;;;;;;9.00;5.90;;;;;;;;;;5059899;28;20488;-75
2021/08/15 10:52:39;;;;;;;7.70;5.60;;;;;;;;;;5055269;28;20274;-75
2021/08/15 10:55:06;;;;;;;9.93;6.33;;;;;;;;;;5056977;28;20445;-75
2021/08/15 10:57:35;;;;;;;7.30;5.93;;;;;;;;;;5053453;28;20519;-75
2021/08/15 11:00:01;;;;;;;9.97;6.57;;;;;;;;;;5056131;28;20436;-77
2021/08/15 11:02:36;;;;;;;10.10;6.30;;;;;;;;;;5052973;28;20614;-76
2021/08/15 11:05:02;;;;;;;7.13;5.60;;;;;;;;;;5057646;28;20163;-75
2021/08/15 11:07:35;;;;;;;7.77;5.77;;;;;;;;;;5059401;28;20449;-75
2021/08/15 11:10:00;;;;;;;7.30;5.00;;;;;;;;;;5051510;28;20465;-75
2021/08/15 11:12:25;;;;;;;9.63;6.00;;;;;;;;;;5056955;28;20496;-74
2021/08/15 11:15:06;;;;;;;6.87;5.00;;;;;;;;;;5054330;28;20207;-77
2021/08/15 11:17:32;;;;;;;7.60;5.10;;;;;;;;;;5053037;28;20240;-76
2021/08/15 11:20:17;;;;;;;9.73;5.80;;;;;;;;;;5053954;28;20430;-76
2021/08/15 11:22:42;;;;;;;10.90;6.03;;;;;;;;;;5061190;28;20960;-77
2021/08/15 11:25:08;;;;;;;6.10;4.97;;;;;;;;;;5056829;28;20480;-75
2021/08/15 11:27:35;;;;;;;7.07;4.47;;;;;;;;;;5056876;28;20191;-78
2021/08/15 11:30:02;;;;;;;9.27;5.40;;;;;;;;;;5056904;28;20233;-78
2021/08/15 11:32:29;;;;;;;7.37;4.90;;;;;;;;;;5060322;28;20958;-77
2021/08/15 11:34:55;;;;;;;12.63;5.00;;;;;;;;;;5059081;28;20437;-77
2021/08/15 11:37:22;;;;;;;7.90;5.60;;;;;;;;;;5057856;28;20513;-77
2021/08/15 11:39:47;;;;;;;11.57;5.53;;;;;;;;;;5056995;28;20429;-78
2021/08/15 11:42:22;;;;;;;8.37;5.50;;;;;;;;;;5065835;28;21013;-77
2021/08/15 11:44:48;;;;;;;8.53;5.00;;;;;;;;;;5058204;28;20261;-76
2021/08/15 11:47:33;;;;;;;9.80;4.97;;;;;;;;;;5057955;28;20446;-76
2021/08/15 11:49:59;;;;;;;9.93;5.33;;;;;;;;;;5056763;28;20192;-76
2021/08/15 11:52:26;;;;;;;8.20;4.80;;;;;;;;;;5057268;28;20523;-78
2021/08/15 11:54:53;;;;;;;7.00;5.40;;;;;;;;;;5057285;28;20425;-79
2021/08/15 11:57:19;;;;;;;10.57;5.17;;;;;;;;;;5069064;28;20453;-79
2021/08/15 11:59:45;;;;;;;7.50;4.63;;;;;;;;;;5057421;28;20448;-79
2021/08/15 12:02:18;;;;;;;6.00;4.80;;;;;;;;;;5056160;28;20206;-77
2021/08/15 12:04:44;;;;;;;8.57;5.27;;;;;;;;;;5062410;28;20426;-79
2021/08/15 12:07:09;;;;;;;8.13;4.80;;;;;;;;;;5062358;28;20606;-78
2021/08/15 12:09:35;;;;;;;9.17;4.47;;;;;;;;;;5063902;28;20478;-80
2021/08/15 12:12:04;;;;;;;8.43;4.23;;;;;;;;;;5066368;28;20263;-81
2021/08/15 12:14:37;;;;;;;6.50;4.47;;;;;;;;;;5061624;28;20571;-79
2021/08/15 12:17:02;;;;;;;8.00;3.83;;;;;;;;;;5058051;28;20454;-78
2021/08/15 12:19:31;;;;;;;8.77;4.10;;;;;;;;;;5059594;28;20433;-78
2021/08/15 12:21:58;;;;;;;8.83;5.37;;;;;;;;;;5058423;28;20199;-76
2021/08/15 12:24:27;;;;;;;7.13;3.63;;;;;;;;;;5059434;28;20442;-78
2021/08/15 12:26:57;;;;;;;7.20;4.27;;;;;;;;;;5063094;28;20497;-78
2021/08/15 12:29:23;;;;;;;8.97;6.00;;;;;;;;;;5056202;28;20453;-76
2021/08/15 12:32:03;;;;;;;7.27;4.60;;;;;;;;;;5054355;28;20438;-77
2021/08/15 12:34:29;;;;;;;8.60;5.10;;;;;;;;;;5050703;28;20188;-74
2021/08/15 12:36:55;;;;;;;6.60;4.83;;;;;;;;;;5056861;28;20457;-75
2021/08/15 12:39:26;;;;;;;7.93;4.23;;;;;;;;;;5053783;28;20215;-74
2021/08/15 12:41:51;;;;;;;9.57;4.57;;;;;;;;;;5053937;28;21024;-74
2021/08/15 12:44:18;;;;;;;7.27;3.90;;;;;;;;;;5050017;28;20430;-74
2021/08/15 12:46:44;;;;;;;5.53;3.93;;;;;;;;;;5054146;28;20211;-73
2021/08/15 12:49:35;;;;;;;8.00;4.10;;;;;;;;;;5049632;28;20804;-76
2021/08/15 12:52:14;;;;;;;12.57;4.10;;;;;;;;;;5056308;28;20204;-75
2021/08/15 12:55:03;;;;;;;5.00;3.50;;;;;;;;;;5057222;28;20478;-75
2021/08/15 12:57:28;;;;;;;7.80;3.97;;;;;;;;;;5051484;28;20507;-75
2021/08/15 12:59:53;;;;;;;7.67;3.50;;;;;;;;;;5053065;28;20954;-76
2021/08/15 13:02:19;;;;;;;7.80;4.30;;;;;;;;;;5054706;28;20210;-75
2021/08/15 13:04:44;;;;;;;5.40;4.07;;;;;;;;;;5050305;28;20366;-75
2021/08/15 13:07:09;;;;;;;8.03;4.33;;;;;;;;;;5058676;28;20622;-76
2021/08/15 13:09:34;;;;;;;10.33;3.80;;;;;;;;;;5055044;28;20186;-75
2021/08/15 13:11:59;;;;;;;8.00;3.93;;;;;;;;;;5055090;28;20210;-75
2021/08/15 13:14:25;;;;;;;5.80;3.70;;;;;;;;;;5053762;28;20180;-75
2021/08/15 13:16:56;;;;;;;6.83;4.00;;;;;;;;;;5057182;28;20735;-75
2021/08/15 13:19:21;;;;;;;4.63;3.33;;;;;;;;;;5053840;28;20659;-75
2021/08/15 13:21:46;;;;;;;5.80;3.67;;;;;;;;;;5050373;28;20457;-76
2021/08/15 13:24:11;;;;;;;11.73;4.23;;;;;;;;;;5055658;28;20179;-75
2021/08/15 13:26:36;;;;;;;24.43;19.00;;;;;;;;;;5052735;28;20252;-75
2021/08/15 13:29:02;;;;;;;26.67;22.70;;;;;;;;;;5052426;28;20248;-76
2021/08/15 13:31:27;;;;;;;20.17;13.30;;;;;;;;;;5052223;28;20266;-75
2021/08/15 13:33:52;;;;;;;10.53;8.80;;;;;;;;;;5052287;28;20183;-76
2021/08/15 13:36:17;;;;;;;26.57;20.77;;;;;;;;;;5053482;28;20821;-74
2021/08/15 13:38:43;;;;;;;57.27;43.07;;;;;;;;;;5054821;28;20637;-74
2021/08/15 13:41:08;;;;;;;52.97;40.93;;;;;;;;;;5061043;28;20598;-77
2021/08/15 13:43:34;;;;;;;99.33;89.07;;;;;;;;;;5048807;28;20198;-75
2021/08/15 13:45:59;;;;;;;72.87;65.17;;;;;;;;;;5056126;28;20262;-76
2021/08/15 13:48:24;;;;;;;413.13;367.67;;;;;;;;;;5047979;28;20198;-75
2021/08/15 13:50:49;;;;;;;106.37;86.67;;;;;;;;;;5057756;28;20176;-76
2021/08/15 13:53:15;;;;;;;198.93;177.30;;;;;;;;;;5053447;28;20181;-75
2021/08/15 13:55:40;;;;;;;100.87;85.10;;;;;;;;;;5055747;28;20562;-74
2021/08/15 13:58:09;;;;;;;92.23;80.70;;;;;;;;;;5052728;28;20297;-76
2021/08/15 14:00:34;;;;;;;22.87;18.67;;;;;;;;;;5059760;28;20235;-73
2021/08/15 14:03:01;;;;;;;38.40;29.10;;;;;;;;;;5047280;28;21009;-76
2021/08/15 14:05:26;;;;;;;173.43;154.53;;;;;;;;;;5054045;28;20464;-75
2021/08/15 14:07:52;;;;;;;84.67;74.70;;;;;;;;;;5055223;28;20196;-76
2021/08/15 14:10:17;;;;;;;188.77;162.60;;;;;;;;;;5049805;28;20194;-73
2021/08/15 14:12:42;;;;;;;11.03;7.70;;;;;;;;;;5057110;28;20284;-74
2021/08/15 14:15:08;;;;;;;15.00;9.63;;;;;;;;;;5051367;28;20192;-74
2021/08/15 14:17:33;;;;;;;137.77;118.53;;;;;;;;;;5052429;28;20212;-75
2021/08/15 14:19:58;;;;;;;332.93;294.33;;;;;;;;;;5050053;28;20564;-75
2021/08/15 14:22:24;;;;;;;496.83;444.47;;;;;;;;;;5048573;28;20264;-74
2021/08/15 14:24:49;;;;;;;308.30;274.30;;;;;;;;;;5051810;28;20187;-74
2021/08/15 14:27:15;;;;;;;278.93;248.00;;;;;;;;;;5046188;28;20199;-75
2021/08/15 14:29:40;;;;;;;595.47;535.37;;;;;;;;;;5049151;28;20179;-76